createdAt,value
2023-03-07T00:01:05.826Z,2.90
2023-03-07T00:03:32.582Z,2.90
2023-03-07T00:06:09.992Z,2.90
2023-03-07T00:08:36.649Z,3.00
2023-03-07T00:11:07.525Z,2.90
2023-03-07T00:13:34.992Z,3.00
2023-03-07T00:16:02.985Z,3.00
2023-03-07T00:18:29.989Z,3.10
2023-03-07T00:21:06.008Z,3.00
2023-03-07T00:23:33.546Z,2.90
2023-03-07T00:26:01.319Z,3.00
2023-03-07T00:28:28.241Z,3.00
2023-03-07T00:30:55.329Z,3.00
2023-03-07T00:33:22.084Z,3.00
2023-03-07T00:35:55.934Z,2.90
2023-03-07T00:38:22.695Z,2.80
2023-03-07T00:40:56.529Z,2.80
2023-03-07T00:43:23.280Z,2.80
2023-03-07T00:45:49.983Z,2.80
2023-03-07T00:48:18.233Z,2.70
2023-03-07T00:50:45.337Z,2.70
2023-03-07T00:53:11.999Z,2.80
2023-03-07T00:55:38.711Z,2.70
2023-03-07T00:58:05.410Z,2.70
2023-03-07T01:00:32.262Z,2.70
2023-03-07T01:03:01.911Z,2.70
2023-03-07T01:05:28.592Z,2.70
2023-03-07T01:07:55.261Z,2.70
2023-03-07T01:10:21.980Z,2.70
2023-03-07T01:12:48.641Z,2.60
2023-03-07T01:15:15.301Z,2.70
2023-03-07T01:17:41.892Z,2.70
2023-03-07T01:20:08.853Z,2.70
2023-03-07T01:22:35.509Z,2.70
2023-03-07T01:25:02.126Z,2.80
2023-03-07T01:27:28.809Z,2.80
2023-03-07T01:29:55.441Z,2.80
2023-03-07T01:32:22.141Z,2.70
2023-03-07T01:34:48.788Z,2.70
2023-03-07T01:37:15.512Z,2.80
2023-03-07T01:39:43.062Z,2.70
2023-03-07T01:42:10.626Z,2.80
2023-03-07T01:44:56.039Z,2.80
2023-03-07T01:47:23.108Z,2.80
2023-03-07T01:49:49.992Z,2.80
2023-03-07T01:52:22.038Z,2.80
2023-03-07T01:54:51.111Z,2.80
2023-03-07T01:57:23.671Z,2.80
2023-03-07T01:59:51.594Z,2.90
2023-03-07T02:02:19.650Z,2.90
2023-03-07T02:04:49.467Z,3.00
2023-03-07T02:07:16.461Z,2.90
2023-03-07T02:09:45.049Z,2.90
2023-03-07T02:12:11.742Z,2.90
2023-03-07T02:14:38.404Z,2.90
2023-03-07T02:17:05.079Z,2.90
2023-03-07T02:19:34.489Z,2.90
2023-03-07T02:22:07.087Z,2.90
2023-03-07T02:24:38.273Z,2.90
2023-03-07T02:27:06.049Z,2.90
2023-03-07T02:29:32.748Z,3.00
2023-03-07T02:31:59.418Z,3.00
2023-03-07T02:34:27.771Z,3.00
2023-03-07T02:37:06.704Z,2.90
2023-03-07T02:39:33.854Z,2.90
2023-03-07T02:42:13.118Z,2.90
2023-03-07T02:44:39.884Z,2.90
2023-03-07T02:47:08.988Z,2.90
2023-03-07T02:49:36.360Z,2.90
2023-03-07T02:52:03.398Z,2.90
2023-03-07T02:54:30.046Z,2.90
2023-03-07T02:56:56.712Z,2.90
2023-03-07T02:59:23.443Z,2.90
2023-03-07T03:01:50.235Z,2.90
2023-03-07T03:04:17.065Z,2.90
2023-03-07T03:06:43.871Z,2.90
2023-03-07T03:09:11.504Z,2.90
2023-03-07T03:11:38.193Z,2.90
2023-03-07T03:14:04.853Z,3.00
2023-03-07T03:16:31.513Z,2.90
2023-03-07T03:18:58.336Z,2.80
2023-03-07T03:21:25.015Z,2.80
2023-03-07T03:23:51.673Z,2.80
2023-03-07T03:26:18.517Z,2.80
2023-03-07T03:28:45.250Z,2.90
2023-03-07T03:31:15.239Z,2.90
2023-03-07T03:33:44.102Z,2.90
2023-03-07T03:36:12.417Z,3.00
2023-03-07T03:38:39.301Z,2.90
2023-03-07T03:41:06.841Z,2.90
2023-03-07T03:43:34.285Z,2.90
2023-03-07T03:46:00.945Z,2.80
2023-03-07T03:48:28.026Z,2.80
2023-03-07T03:51:08.501Z,2.80
2023-03-07T03:53:36.230Z,2.80
2023-03-07T03:56:23.161Z,2.80
2023-03-07T03:58:51.579Z,2.80
2023-03-07T04:01:19.152Z,2.80
2023-03-07T04:03:46.922Z,2.80
2023-03-07T04:06:21.004Z,2.90
2023-03-07T04:08:47.728Z,2.90
2023-03-07T04:11:14.412Z,2.90
2023-03-07T04:13:41.427Z,2.90
2023-03-07T04:16:08.088Z,2.90
2023-03-07T04:18:35.485Z,3.00
2023-03-07T04:21:02.569Z,3.10
2023-03-07T04:23:29.241Z,3.10
2023-03-07T04:25:57.656Z,3.20
2023-03-07T04:28:25.286Z,3.00
2023-03-07T04:30:54.602Z,3.10
2023-03-07T04:33:21.279Z,3.10
2023-03-07T04:35:48.091Z,3.10
2023-03-07T04:38:15.593Z,3.20
2023-03-07T04:40:42.293Z,3.20
2023-03-07T04:43:09.007Z,3.20
2023-03-07T04:45:37.289Z,3.30
2023-03-07T04:48:04.076Z,3.30
2023-03-07T04:50:30.734Z,3.30
2023-03-07T04:52:57.359Z,3.30
2023-03-07T04:55:24.044Z,3.30
2023-03-07T04:57:52.075Z,3.40
2023-03-07T05:00:19.423Z,3.50
2023-03-07T05:02:46.778Z,3.50
2023-03-07T05:05:13.531Z,3.50
2023-03-07T05:07:40.261Z,3.50
2023-03-07T05:10:07.343Z,3.50
2023-03-07T05:12:34.013Z,3.50
2023-03-07T05:15:01.048Z,3.40
2023-03-07T05:17:29.623Z,3.30
2023-03-07T05:19:56.241Z,3.40
2023-03-07T05:22:23.091Z,3.30
2023-03-07T05:24:49.718Z,3.30
2023-03-07T05:27:16.530Z,3.30
2023-03-07T05:29:43.328Z,3.30
2023-03-07T05:32:11.177Z,3.30
2023-03-07T05:34:40.970Z,3.40
2023-03-07T05:37:07.599Z,3.30
2023-03-07T05:39:34.288Z,3.30
2023-03-07T05:42:00.935Z,3.40
2023-03-07T05:44:27.594Z,3.40
2023-03-07T05:46:54.230Z,3.50
2023-03-07T05:49:20.943Z,3.40
2023-03-07T05:51:47.686Z,3.50
2023-03-07T05:54:14.333Z,3.50
2023-03-07T05:56:41.006Z,3.40
2023-03-07T05:59:08.035Z,3.40
2023-03-07T06:01:34.773Z,3.40
2023-03-07T06:04:01.481Z,3.50
2023-03-07T06:06:28.268Z,3.50
2023-03-07T06:08:54.940Z,3.40
2023-03-07T06:11:21.647Z,3.50
2023-03-07T06:13:48.286Z,3.40
2023-03-07T06:16:15.006Z,3.40
2023-03-07T06:18:41.716Z,3.40
2023-03-07T06:21:09.003Z,3.50
2023-03-07T06:23:36.514Z,3.50
2023-03-07T06:26:03.817Z,3.50
2023-03-07T06:28:32.832Z,3.50
2023-03-07T06:30:59.810Z,3.60
2023-03-07T06:33:26.575Z,3.60
2023-03-07T06:35:53.357Z,3.60
2023-03-07T06:38:20.063Z,3.60
2023-03-07T06:40:54.531Z,3.60
2023-03-07T06:43:21.174Z,3.60
2023-03-07T06:45:47.880Z,3.70
2023-03-07T06:48:14.736Z,3.80
2023-03-07T06:50:41.374Z,3.70
2023-03-07T06:53:08.078Z,3.80
2023-03-07T06:55:34.777Z,3.80
2023-03-07T06:58:01.416Z,3.80
2023-03-07T07:00:28.270Z,3.80
2023-03-07T07:02:55.238Z,3.80
2023-03-07T07:05:22.014Z,3.90
2023-03-07T07:07:48.634Z,4.10
2023-03-07T07:10:15.320Z,4.10
2023-03-07T07:12:42.005Z,4.20
2023-03-07T07:15:09.708Z,4.20
2023-03-07T07:17:36.524Z,4.20
2023-03-07T07:20:05.322Z,4.10
2023-03-07T07:22:32.467Z,4.10
2023-03-07T07:24:59.189Z,4.20
2023-03-07T07:27:26.013Z,4.20
2023-03-07T07:29:52.656Z,4.30
2023-03-07T07:32:19.584Z,4.30
2023-03-07T07:34:46.361Z,4.30
2023-03-07T07:37:13.036Z,4.40
2023-03-07T07:39:43.840Z,4.70
2023-03-07T07:42:11.203Z,5.10
2023-03-07T07:44:37.870Z,5.20
2023-03-07T07:47:04.600Z,5.20
2023-03-07T07:49:31.250Z,5.10
2023-03-07T07:51:57.952Z,5.20
2023-03-07T07:54:24.968Z,5.30
2023-03-07T07:56:51.616Z,5.40
2023-03-07T07:59:18.355Z,5.40
2023-03-07T08:01:45.026Z,5.20
2023-03-07T08:04:11.733Z,5.10
2023-03-07T08:06:38.423Z,5.20
2023-03-07T08:09:05.617Z,5.20
2023-03-07T08:11:32.275Z,5.20
2023-03-07T08:13:58.889Z,5.20
2023-03-07T08:16:26.141Z,5.40
2023-03-07T08:18:53.954Z,5.90
2023-03-07T08:21:21.328Z,7.00
2023-03-07T08:23:48.143Z,8.60
2023-03-07T08:26:14.851Z,10.00
2023-03-07T08:28:41.690Z,11.30
2023-03-07T08:31:08.469Z,11.00
2023-03-07T08:33:35.194Z,11.00
2023-03-07T08:36:02.026Z,11.10
2023-03-07T08:38:28.683Z,11.00
2023-03-07T08:40:59.271Z,11.00
2023-03-07T08:43:25.902Z,11.60
2023-03-07T08:45:52.994Z,12.70
2023-03-07T08:48:20.762Z,12.20
2023-03-07T08:50:47.442Z,12.90
2023-03-07T08:53:14.748Z,13.10
2023-03-07T08:55:41.548Z,13.20
2023-03-07T08:58:08.234Z,12.50
2023-03-07T09:00:34.910Z,12.00
2023-03-07T09:03:01.743Z,12.10
2023-03-07T09:05:29.155Z,12.20
2023-03-07T09:07:56.269Z,11.60
2023-03-07T09:10:23.210Z,11.00
2023-03-07T09:12:51.191Z,10.50
2023-03-07T09:15:18.169Z,10.80
2023-03-07T09:17:44.886Z,10.50
2023-03-07T09:20:11.941Z,10.20
2023-03-07T09:22:38.611Z,10.50
2023-03-07T09:25:06.002Z,9.50
2023-03-07T09:27:32.652Z,9.10
2023-03-07T09:29:59.297Z,8.60
2023-03-07T09:32:26.011Z,8.40
2023-03-07T09:34:53.395Z,8.30
2023-03-07T09:37:20.053Z,8.40
2023-03-07T09:39:48.649Z,8.70
2023-03-07T09:42:15.230Z,8.90
2023-03-07T09:44:53.887Z,8.90
2023-03-07T09:47:33.851Z,8.90
2023-03-07T09:50:02.500Z,8.70
2023-03-07T09:52:33.375Z,7.80
2023-03-07T09:55:01.079Z,7.70
2023-03-07T09:57:37.073Z,7.70
2023-03-07T10:00:09.822Z,7.80
2023-03-07T10:02:45.404Z,7.60
2023-03-07T10:05:12.055Z,7.80
2023-03-07T10:07:38.856Z,7.40
2023-03-07T10:10:07.317Z,7.20
2023-03-07T10:12:52.556Z,7.10
2023-03-07T10:15:25.743Z,7.00
2023-03-07T10:17:55.451Z,6.70
2023-03-07T10:20:35.856Z,6.60
2023-03-07T10:23:22.693Z,6.60
2023-03-07T10:26:04.812Z,6.70
2023-03-07T10:28:32.593Z,6.80
2023-03-07T10:31:01.552Z,6.60
2023-03-07T10:33:29.380Z,6.50
2023-03-07T10:36:04.343Z,6.30
2023-03-07T10:38:37.506Z,6.50
2023-03-07T10:41:11.488Z,6.40
2023-03-07T10:43:39.229Z,6.40
2023-03-07T10:46:25.239Z,6.50
2023-03-07T10:48:54.816Z,6.50
2023-03-07T10:51:27.487Z,6.60
2023-03-07T10:53:55.887Z,6.30
2023-03-07T10:56:22.659Z,6.30
2023-03-07T10:58:58.321Z,6.30
2023-03-07T11:01:27.629Z,6.30
2023-03-07T11:03:58.623Z,6.40
2023-03-07T11:06:28.509Z,6.70
2023-03-07T11:08:56.238Z,6.70
2023-03-07T11:11:31.007Z,6.60
2023-03-07T11:14:14.479Z,6.60
2023-03-07T11:16:48.827Z,6.70
2023-03-07T11:19:34.336Z,6.60
2023-03-07T11:22:03.625Z,6.50
2023-03-07T11:24:40.092Z,6.10
2023-03-07T11:27:06.740Z,6.00
2023-03-07T11:29:34.863Z,6.00
2023-03-07T11:32:22.679Z,6.00
2023-03-07T11:34:53.436Z,5.70
2023-03-07T11:37:28.717Z,6.00
2023-03-07T11:40:10.557Z,6.20
2023-03-07T11:42:44.459Z,6.10
2023-03-07T11:45:27.733Z,6.20
2023-03-07T11:48:13.218Z,6.40
2023-03-07T11:50:40.991Z,6.30
2023-03-07T11:53:07.572Z,6.30
2023-03-07T11:55:53.024Z,6.40
2023-03-07T11:58:38.253Z,6.40
2023-03-07T12:01:11.953Z,6.10
2023-03-07T12:03:41.718Z,6.30
2023-03-07T12:06:11.044Z,6.30
2023-03-07T12:08:44.941Z,6.10
2023-03-07T12:11:26.724Z,6.10
2023-03-07T12:14:04.045Z,6.10
2023-03-07T12:16:49.267Z,5.90
2023-03-07T12:19:25.732Z,6.00
2023-03-07T12:21:52.426Z,6.30
2023-03-07T12:24:19.062Z,6.50
2023-03-07T12:27:04.210Z,6.30
2023-03-07T12:29:40.053Z,6.40
2023-03-07T12:32:13.982Z,6.50
2023-03-07T12:34:46.508Z,6.50
2023-03-07T12:37:36.315Z,6.80
2023-03-07T12:40:04.874Z,6.90
2023-03-07T12:42:35.148Z,6.80
2023-03-07T12:45:07.710Z,6.80
2023-03-07T12:47:52.881Z,6.70
2023-03-07T12:50:22.661Z,6.60
2023-03-07T12:52:49.244Z,6.80
2023-03-07T12:55:18.804Z,6.60
2023-03-07T12:57:50.736Z,6.70
2023-03-07T13:00:18.175Z,6.90
2023-03-07T13:02:49.586Z,7.00
2023-03-07T13:05:18.752Z,7.10
2023-03-07T13:07:46.334Z,7.00
2023-03-07T13:10:16.616Z,7.00
2023-03-07T13:12:43.316Z,7.10
2023-03-07T13:15:18.870Z,7.30
2023-03-07T13:17:45.543Z,7.30
2023-03-07T13:20:14.984Z,7.40
2023-03-07T13:22:41.556Z,7.50
2023-03-07T13:25:25.903Z,7.60
2023-03-07T13:27:54.649Z,7.50
2023-03-07T13:30:25.536Z,7.20
2023-03-07T13:32:52.225Z,6.80
2023-03-07T13:35:28.439Z,6.70
2023-03-07T13:38:03.665Z,6.80
2023-03-07T13:40:30.482Z,6.90
2023-03-07T13:42:57.449Z,6.80
2023-03-07T13:45:39.551Z,6.70
2023-03-07T13:48:13.099Z,6.80
2023-03-07T13:50:42.998Z,7.20
2023-03-07T13:53:17.087Z,7.30
2023-03-07T13:55:53.223Z,7.20
2023-03-07T13:58:31.796Z,7.10
2023-03-07T14:01:06.305Z,7.30
2023-03-07T14:03:35.711Z,7.40
2023-03-07T14:06:13.797Z,7.40
2023-03-07T14:08:41.321Z,7.50
2023-03-07T14:11:14.798Z,7.70
2023-03-07T14:13:56.964Z,7.70
2023-03-07T14:16:27.240Z,8.20
2023-03-07T14:18:58.351Z,8.10
2023-03-07T14:21:43.467Z,8.00
2023-03-07T14:24:21.134Z,8.10
2023-03-07T14:26:52.888Z,8.10
2023-03-07T14:29:22.439Z,7.90
2023-03-07T14:31:50.357Z,8.10
2023-03-07T14:34:37.884Z,8.00
2023-03-07T14:37:07.390Z,8.30
2023-03-07T14:40:00.663Z,8.40
2023-03-07T14:42:45.414Z,8.50
2023-03-07T14:45:24.077Z,8.20
2023-03-07T14:48:23.929Z,7.80
2023-03-07T14:50:50.928Z,7.50
2023-03-07T14:53:25.313Z,7.20
2023-03-07T14:55:53.843Z,7.10
2023-03-07T14:58:28.279Z,7.20
2023-03-07T15:01:01.039Z,7.20
2023-03-07T15:03:28.255Z,7.10
2023-03-07T15:05:56.728Z,7.00
2023-03-07T15:08:29.678Z,6.90
2023-03-07T15:10:56.438Z,7.00
2023-03-07T15:13:31.968Z,7.10
2023-03-07T15:16:00.902Z,7.00
2023-03-07T15:18:30.434Z,6.90
2023-03-07T15:20:58.226Z,6.90
2023-03-07T15:23:27.773Z,7.00
2023-03-07T15:25:57.220Z,7.10
2023-03-07T15:28:26.975Z,7.00
2023-03-07T15:30:54.027Z,7.10
2023-03-07T15:33:20.682Z,7.00
2023-03-07T15:36:05.901Z,7.00
2023-03-07T15:38:33.397Z,6.90
2023-03-07T15:41:00.326Z,6.90
2023-03-07T15:43:28.421Z,6.80
2023-03-07T15:46:15.977Z,7.00
2023-03-07T15:48:50.718Z,7.20
2023-03-07T15:51:23.804Z,7.30
2023-03-07T15:53:56.371Z,7.40
2023-03-07T15:56:26.287Z,7.50
2023-03-07T15:58:55.251Z,7.30
2023-03-07T16:01:23.458Z,7.00
2023-03-07T16:03:51.531Z,6.90
2023-03-07T16:06:37.398Z,6.80
2023-03-07T16:09:09.366Z,6.70
2023-03-07T16:11:38.125Z,6.70
2023-03-07T16:14:05.153Z,6.60
2023-03-07T16:16:31.834Z,6.70
2023-03-07T16:18:58.519Z,6.70
2023-03-07T16:21:26.103Z,6.70
2023-03-07T16:23:52.773Z,6.90
2023-03-07T16:26:23.649Z,6.70
2023-03-07T16:28:50.617Z,6.70
2023-03-07T16:31:18.033Z,6.60
2023-03-07T16:33:45.933Z,6.50
2023-03-07T16:36:13.544Z,6.30
2023-03-07T16:38:40.633Z,6.20
2023-03-07T16:41:14.717Z,6.20
2023-03-07T16:43:41.429Z,6.20
2023-03-07T16:46:16.370Z,6.30
2023-03-07T16:48:43.143Z,6.20
2023-03-07T16:51:14.310Z,6.30
2023-03-07T16:53:40.921Z,6.30
2023-03-07T16:56:09.740Z,6.40
2023-03-07T16:58:36.522Z,6.30
2023-03-07T17:01:04.495Z,6.30
2023-03-07T17:03:31.446Z,6.20
2023-03-07T17:05:58.204Z,6.10
2023-03-07T17:08:24.913Z,6.10
2023-03-07T17:10:51.662Z,6.10
2023-03-07T17:13:18.539Z,6.00
2023-03-07T17:15:46.190Z,5.90
2023-03-07T17:18:13.003Z,5.80
2023-03-07T17:20:40.127Z,5.80
2023-03-07T17:23:06.813Z,5.80
2023-03-07T17:25:33.477Z,5.80
2023-03-07T17:28:05.181Z,5.80
2023-03-07T17:30:32.037Z,5.80
2023-03-07T17:32:58.928Z,5.70
2023-03-07T17:35:30.422Z,5.70
2023-03-07T17:37:57.375Z,5.70
2023-03-07T17:40:24.045Z,5.70
2023-03-07T17:42:51.739Z,5.70
2023-03-07T17:45:18.780Z,5.60
2023-03-07T17:47:45.419Z,5.50
2023-03-07T17:50:12.266Z,5.50
2023-03-07T17:52:39.149Z,5.40
2023-03-07T17:55:09.426Z,5.40
2023-03-07T17:57:36.484Z,5.40
2023-03-07T18:00:06.876Z,5.40
2023-03-07T18:02:35.053Z,5.40
2023-03-07T18:05:01.795Z,5.40
2023-03-07T18:07:28.490Z,5.30
2023-03-07T18:10:07.100Z,5.20
2023-03-07T18:12:34.822Z,5.10
2023-03-07T18:15:01.529Z,5.00
2023-03-07T18:17:33.277Z,4.80
2023-03-07T18:20:07.980Z,4.70
2023-03-07T18:22:34.760Z,4.60
2023-03-07T18:25:01.381Z,4.60
2023-03-07T18:27:29.847Z,4.50
2023-03-07T18:29:56.531Z,4.50
2023-03-07T18:32:27.269Z,4.50
2023-03-07T18:34:55.009Z,4.60
2023-03-07T18:37:21.692Z,4.60
2023-03-07T18:39:48.562Z,4.60
2023-03-07T18:42:15.307Z,4.70
2023-03-07T18:44:42.018Z,4.60
2023-03-07T18:47:10.483Z,4.60
2023-03-07T18:49:38.479Z,4.60
2023-03-07T18:52:05.119Z,4.50
2023-03-07T18:54:31.796Z,4.60
2023-03-07T18:56:58.438Z,4.60
2023-03-07T18:59:25.069Z,4.60
2023-03-07T19:01:51.741Z,4.60
2023-03-07T19:04:18.531Z,4.60
2023-03-07T19:06:47.594Z,4.50
2023-03-07T19:09:15.725Z,4.50
2023-03-07T19:11:42.532Z,4.40
2023-03-07T19:14:09.187Z,4.50
2023-03-07T19:16:36.173Z,4.40
2023-03-07T19:19:03.728Z,4.50
2023-03-07T19:21:30.830Z,4.50
2023-03-07T19:23:58.527Z,4.60
2023-03-07T19:26:25.364Z,4.50
2023-03-07T19:28:53.655Z,4.40
2023-03-07T19:31:21.975Z,4.40
2023-03-07T19:33:49.206Z,4.40
2023-03-07T19:36:17.270Z,4.30
2023-03-07T19:38:44.004Z,4.40
2023-03-07T19:41:14.476Z,4.40
2023-03-07T19:43:41.316Z,4.40
2023-03-07T19:46:10.075Z,4.50
2023-03-07T19:48:36.818Z,4.30
2023-03-07T19:51:04.306Z,4.40
2023-03-07T19:53:31.253Z,4.30
2023-03-07T19:55:57.963Z,4.30
2023-03-07T19:58:24.670Z,4.30
2023-03-07T20:00:51.370Z,4.20
2023-03-07T20:03:19.777Z,4.20
2023-03-07T20:05:48.630Z,4.20
2023-03-07T20:08:15.843Z,4.20
2023-03-07T20:10:42.900Z,4.30
2023-03-07T20:13:09.785Z,4.40
2023-03-07T20:15:36.526Z,4.40
2023-03-07T20:18:05.834Z,4.50
2023-03-07T20:20:35.825Z,4.40
2023-03-07T20:23:02.467Z,4.40
2023-03-07T20:25:29.682Z,4.50
2023-03-07T20:27:56.673Z,4.50
2023-03-07T20:30:23.807Z,4.50
2023-03-07T20:32:50.487Z,4.50
2023-03-07T20:35:17.138Z,4.50
2023-03-07T20:37:43.846Z,4.60
2023-03-07T20:40:10.942Z,4.40
2023-03-07T20:42:37.709Z,4.30
2023-03-07T20:45:04.713Z,4.40
2023-03-07T20:47:34.208Z,4.30
2023-03-07T20:50:01.204Z,4.30
2023-03-07T20:52:27.892Z,4.30
2023-03-07T20:54:54.587Z,4.30
2023-03-07T20:57:21.288Z,4.20
2023-03-07T20:59:48.805Z,4.20
2023-03-07T21:02:15.559Z,4.20
2023-03-07T21:04:42.264Z,4.20
2023-03-07T21:07:09.001Z,4.20
2023-03-07T21:09:35.685Z,4.10
2023-03-07T21:12:02.408Z,4.10
2023-03-07T21:14:29.542Z,4.10
2023-03-07T21:16:56.204Z,4.20
2023-03-07T21:19:22.894Z,4.30
2023-03-07T21:21:49.491Z,4.30
2023-03-07T21:24:16.326Z,4.20
2023-03-07T21:26:43.040Z,4.20
2023-03-07T21:29:10.877Z,4.20
2023-03-07T21:31:38.798Z,4.10
2023-03-07T21:34:07.383Z,4.20
2023-03-07T21:36:34.615Z,4.20
2023-03-07T21:39:02.678Z,4.20
2023-03-07T21:41:29.376Z,4.20
2023-03-07T21:43:56.521Z,4.20
2023-03-07T21:46:23.585Z,4.20
2023-03-07T21:48:50.399Z,4.20
2023-03-07T21:51:17.470Z,4.10
2023-03-07T21:53:44.214Z,4.20
2023-03-07T21:56:12.301Z,4.10
2023-03-07T21:58:39.328Z,4.10
2023-03-07T22:01:13.170Z,4.10
2023-03-07T22:03:40.313Z,4.00
2023-03-07T22:06:07.676Z,4.00
2023-03-07T22:08:34.562Z,4.00
2023-03-07T22:11:03.312Z,4.00
2023-03-07T22:13:31.995Z,4.10
2023-03-07T22:15:59.064Z,4.00
2023-03-07T22:18:26.120Z,4.00
2023-03-07T22:20:52.939Z,4.00
2023-03-07T22:23:19.630Z,4.00
2023-03-07T22:25:46.325Z,4.10
2023-03-07T22:28:16.662Z,4.00
2023-03-07T22:30:43.361Z,4.10
2023-03-07T22:33:10.060Z,4.00
2023-03-07T22:35:36.848Z,4.10
2023-03-07T22:38:03.624Z,4.10
2023-03-07T22:40:30.305Z,4.10
2023-03-07T22:42:57.022Z,4.10
2023-03-07T22:45:23.624Z,4.10
2023-03-07T22:47:50.312Z,4.10
2023-03-07T22:50:17.118Z,4.10
2023-03-07T22:52:43.839Z,4.10
2023-03-07T22:55:10.516Z,4.00
2023-03-07T22:57:37.084Z,4.00
2023-03-07T23:00:04.077Z,4.00
2023-03-07T23:02:30.808Z,4.00
2023-03-07T23:04:57.507Z,4.00
2023-03-07T23:07:24.180Z,4.00
2023-03-07T23:09:50.874Z,4.00
2023-03-07T23:12:17.591Z,4.00
2023-03-07T23:14:44.310Z,4.00
2023-03-07T23:17:11.017Z,4.10
2023-03-07T23:19:37.763Z,4.10
2023-03-07T23:22:04.456Z,4.10
2023-03-07T23:24:31.097Z,4.10
2023-03-07T23:26:57.808Z,4.10
2023-03-07T23:29:24.481Z,4.10
2023-03-07T23:31:51.183Z,4.10
2023-03-07T23:34:19.387Z,4.10
2023-03-07T23:36:46.318Z,4.10
2023-03-07T23:39:14.807Z,4.10
2023-03-07T23:41:41.448Z,4.10
2023-03-07T23:44:08.105Z,4.20
2023-03-07T23:46:34.873Z,4.10
2023-03-07T23:49:01.574Z,4.10
2023-03-07T23:51:28.321Z,4.10
2023-03-07T23:53:55.239Z,4.10
2023-03-07T23:56:22.006Z,4.00
2023-03-07T23:58:50.057Z,4.10
